Medford, Indiana
Current Conditions -  °F | °C
As of 2:53 PM on Wednesday 17 Dec 2014 (Local Time) from KMIE Reporting Station
Overcast Overcast  
Wind Chill: 15°   Ceiling: 800
Heat Index: 25°   Visibility: 7mi
Dew Point: 22°   Wind: 10mph
Humidity: 88%   Direction: 300°WNW
Pressure: 30.2"   Gusts: NA
Location:  40.1286°N, 85.3767°W
Report Text: KMIE 171953Z 30009KT 7SM OVC008 M04/M06 A3020 RMK AO2 SLP232 T10391056
Loading
Personal Weather Stations






























Interactive Weather Map New forecast layout! Learn more

10-Day Weather Forecast

Advertisements
Track Severe Weather on mobile